DCCHB EDRY-EDDL
Flight info
| Callsign | DCCHB |
|---|---|
| Flight time | N/A |
| Altitude | 30000 |
| Route | DCT DONAB/N0439F300 IFR Y180 RUDOT Q760 INLAR T853 LMA LMA1W/27 |
| Aircraft | LJ35/M-SGHRWXY/SB1 |
Departure
| Time | N/A |
|---|---|
| Airport | Speyer Airfield (EDRY) |
Arrival
| Time | 2026-05-04 20:10 |
|---|---|
| Airport | Düsseldorf Airport (EDDL) |
| Time | Latitude | Longitude | Altitude | Speed | Heading |
|---|---|---|---|---|---|
| 2026-05-04 19:54 | 51.45337 | 6.51478 | 5049 ft | 290 kts | 32° |
| 2026-05-04 19:54 | 51.46717 | 6.53689 | 4988 ft | 268 kts | 56° |
| 2026-05-04 19:54 | 51.47628 | 6.56157 | 4982 ft | 258 kts | 62° |
| 2026-05-04 19:54 | 51.48482 | 6.58710 | 4989 ft | 264 kts | 63° |
| 2026-05-04 19:55 | 51.49341 | 6.61312 | 4996 ft | 257 kts | 63° |
| 2026-05-04 19:55 | 51.50158 | 6.63786 | 4989 ft | 245 kts | 62° |
| 2026-05-04 19:55 | 51.50952 | 6.66178 | 4989 ft | 239 kts | 63° |
| 2026-05-04 19:55 | 51.51637 | 6.68567 | 4984 ft | 234 kts | 77° |
| 2026-05-04 19:56 | 51.51572 | 6.71107 | 4990 ft | 228 kts | 111° |
| 2026-05-04 19:56 | 51.50744 | 6.73268 | 4989 ft | 231 kts | 130° |
| 2026-05-04 19:56 | 51.49697 | 6.75286 | 4996 ft | 239 kts | 131° |
| 2026-05-04 19:56 | 51.48623 | 6.77310 | 5006 ft | 238 kts | 132° |
| 2026-05-04 19:57 | 51.47552 | 6.79328 | 5008 ft | 236 kts | 132° |
| 2026-05-04 19:57 | 51.46490 | 6.81333 | 5008 ft | 236 kts | 132° |
| 2026-05-04 19:57 | 51.45512 | 6.83455 | 4996 ft | 239 kts | 117° |
| 2026-05-04 19:57 | 51.45242 | 6.86079 | 4995 ft | 243 kts | 85° |
| 2026-05-04 19:58 | 51.45844 | 6.88593 | 4992 ft | 244 kts | 59° |
| 2026-05-04 19:58 | 51.46815 | 6.90827 | 4996 ft | 244 kts | 54° |
| 2026-05-04 19:58 | 51.47826 | 6.93020 | 4997 ft | 244 kts | 54° |
| 2026-05-04 19:58 | 51.48843 | 6.95202 | 4995 ft | 244 kts | 54° |
| 2026-05-04 19:59 | 51.49863 | 6.97383 | 5001 ft | 245 kts | 54° |
| 2026-05-04 19:59 | 51.50886 | 6.99572 | 5002 ft | 245 kts | 54° |
| 2026-05-04 19:59 | 51.51895 | 7.01737 | 5005 ft | 235 kts | 54° |
| 2026-05-04 19:59 | 51.52831 | 7.03733 | 4994 ft | 220 kts | 54° |
| 2026-05-04 20:00 | 51.53747 | 7.05690 | 4993 ft | 223 kts | 54° |
| 2026-05-04 20:00 | 51.54682 | 7.07697 | 4990 ft | 227 kts | 54° |
| 2026-05-04 20:00 | 51.55590 | 7.09647 | 4997 ft | 227 kts | 54° |
| 2026-05-04 20:00 | 51.56534 | 7.11681 | 4995 ft | 227 kts | 54° |
| 2026-05-04 20:01 | 51.57474 | 7.13705 | 4995 ft | 226 kts | 54° |
| 2026-05-04 20:01 | 51.58372 | 7.15770 | 4989 ft | 224 kts | 65° |
| 2026-05-04 20:01 | 51.58619 | 7.18173 | 4994 ft | 218 kts | 101° |
| 2026-05-04 20:01 | 51.57983 | 7.20311 | 5001 ft | 212 kts | 134° |
| 2026-05-04 20:02 | 51.56911 | 7.21920 | 4998 ft | 211 kts | 141° |
| 2026-05-04 20:02 | 51.55720 | 7.23262 | 4993 ft | 208 kts | 161° |
| 2026-05-04 20:02 | 51.54297 | 7.23393 | 4901 ft | 209 kts | 194° |
| 2026-05-04 20:02 | 51.52916 | 7.22650 | 4810 ft | 211 kts | 201° |
| 2026-05-04 20:03 | 51.51577 | 7.21671 | 4674 ft | 214 kts | 212° |
| 2026-05-04 20:03 | 51.50336 | 7.20350 | 4556 ft | 214 kts | 215° |
| 2026-05-04 20:03 | 51.49231 | 7.18799 | 4425 ft | 209 kts | 228° |
| 2026-05-04 20:03 | 51.48330 | 7.17000 | 4277 ft | 205 kts | 232° |
| 2026-05-04 20:04 | 51.47479 | 7.15183 | 4116 ft | 203 kts | 232° |
| 2026-05-04 20:04 | 51.46629 | 7.13380 | 3947 ft | 203 kts | 232° |
| 2026-05-04 20:04 | 51.45771 | 7.11576 | 3785 ft | 205 kts | 232° |
| 2026-05-04 20:04 | 51.44909 | 7.09733 | 3646 ft | 207 kts | 232° |
| 2026-05-04 20:05 | 51.44040 | 7.07908 | 3549 ft | 206 kts | 231° |
| 2026-05-04 20:05 | 51.43204 | 7.06129 | 3454 ft | 193 kts | 232° |
| 2026-05-04 20:05 | 51.42429 | 7.04491 | 3337 ft | 177 kts | 231° |
| 2026-05-04 20:05 | 51.41685 | 7.02929 | 3179 ft | 176 kts | 232° |
| 2026-05-04 20:06 | 51.40950 | 7.01365 | 3047 ft | 175 kts | 231° |
| 2026-05-04 20:06 | 51.40224 | 6.99842 | 2993 ft | 176 kts | 231° |
| 2026-05-04 20:06 | 51.39481 | 6.98270 | 2996 ft | 176 kts | 232° |
| 2026-05-04 20:06 | 51.38745 | 6.96710 | 2994 ft | 174 kts | 231° |
| 2026-05-04 20:07 | 51.38002 | 6.95151 | 2852 ft | 180 kts | 232° |
| 2026-05-04 20:07 | 51.37253 | 6.93555 | 2624 ft | 176 kts | 231° |
| 2026-05-04 20:07 | 51.36513 | 6.92003 | 2385 ft | 174 kts | 231° |
| 2026-05-04 20:07 | 51.35784 | 6.90471 | 2158 ft | 172 kts | 231° |
| 2026-05-04 20:08 | 51.35061 | 6.88949 | 1926 ft | 172 kts | 231° |
| 2026-05-04 20:08 | 51.34334 | 6.87421 | 1687 ft | 171 kts | 231° |
| 2026-05-04 20:08 | 51.33633 | 6.85947 | 1461 ft | 161 kts | 230° |
| 2026-05-04 20:08 | 51.32996 | 6.84585 | 1245 ft | 144 kts | 231° |
| 2026-05-04 20:09 | 51.32403 | 6.83350 | 1049 ft | 138 kts | 230° |
| 2026-05-04 20:09 | 51.31826 | 6.82138 | 862 ft | 137 kts | 230° |
| 2026-05-04 20:09 | 51.31254 | 6.80917 | 682 ft | 138 kts | 230° |
| 2026-05-04 20:09 | 51.30667 | 6.79704 | 503 ft | 137 kts | 231° |
| 2026-05-04 20:10 | 51.30091 | 6.78487 | 286 ft | 140 kts | 232° |
| 2026-05-04 20:10 | 51.29510 | 6.77261 | 138 ft | 136 kts | 231° |
| 2026-05-04 20:10 | 51.29043 | 6.76288 | 125 ft | 78 kts | 232° |
| 2026-05-04 20:10 | 51.28855 | 6.75898 | 123 ft | 32 kts | 228° |
| 2026-05-04 20:11 | 51.28713 | 6.75711 | 121 ft | 20 kts | 206° |
| 2026-05-04 20:11 | 51.28584 | 6.75681 | 119 ft | 17 kts | 172° |
| 2026-05-04 20:11 | 51.28501 | 6.75731 | 119 ft | 9 kts | 147° |
| 2026-05-04 20:11 | 51.28464 | 6.75773 | 117 ft | 4 kts | 142° |
| 2026-05-04 20:12 | 51.28457 | 6.75781 | 120 ft | 0 kts | 143° |
| 2026-05-04 20:12 | 51.28448 | 6.75792 | 117 ft | 5 kts | 143° |
| 2026-05-04 20:13 | 51.28399 | 6.75852 | 121 ft | 12 kts | 143° |
| 2026-05-04 20:13 | 51.28347 | 6.75909 | 122 ft | 7 kts | 146° |
| 2026-05-04 20:13 | 51.28293 | 6.75973 | 122 ft | 9 kts | 153° |
| 2026-05-04 20:13 | 51.28231 | 6.75977 | 121 ft | 10 kts | 203° |
| 2026-05-04 20:14 | 51.28166 | 6.75929 | 120 ft | 10 kts | 204° |
| 2026-05-04 20:14 | 51.28102 | 6.75881 | 123 ft | 11 kts | 206° |
| 2026-05-04 20:14 | 51.28034 | 6.75819 | 123 ft | 12 kts | 227° |
| 2026-05-04 20:14 | 51.27978 | 6.75702 | 123 ft | 14 kts | 232° |
| 2026-05-04 20:15 | 51.27918 | 6.75577 | 123 ft | 12 kts | 232° |
| 2026-05-04 20:15 | 51.27867 | 6.75470 | 121 ft | 13 kts | 233° |
| 2026-05-04 20:15 | 51.27788 | 6.75393 | 120 ft | 15 kts | 165° |
| 2026-05-04 20:15 | 51.27692 | 6.75468 | 118 ft | 15 kts | 154° |
| 2026-05-04 20:16 | 51.27602 | 6.75531 | 122 ft | 12 kts | 163° |
| 2026-05-04 20:16 | 51.27538 | 6.75581 | 123 ft | 7 kts | 153° |
| 2026-05-04 20:16 | 51.27507 | 6.75567 | 122 ft | 8 kts | 249° |
| 2026-05-04 20:16 | 51.27475 | 6.75460 | 116 ft | 12 kts | 243° |
| 2026-05-04 20:17 | 51.27459 | 6.75395 | 118 ft | 4 kts | 208° |
| 2026-05-04 20:17 | 51.27437 | 6.75381 | 118 ft | 3 kts | 265° |
| 2026-05-04 20:17 | 51.27439 | 6.75373 | 118 ft | 0 kts | 312° |